Time;durP1;ratioP1;P1;durP2;ratioP2;P2;SDS_P1;SDS_P2;PMS_P1;PMS_P2;Temp;Humidity;BMP_temperature;BMP_pressure;BME280_temperature;BME280_humidity;BME280_pressure;Samples;Min_cycle;Max_cycle;Signal;HPM_P1;HPM_P2
2022/01/23 00:01:17;;;;;;;1.42;1.00;;;;;;;;;;5140506;27;20249;-63
2022/01/23 00:03:47;;;;;;;1.08;1.00;;;;;;;;;;5137735;27;20491;-63
2022/01/23 00:06:15;;;;;;;0.85;0.85;;;;;;;;;;5140151;27;20212;-63
2022/01/23 00:08:43;;;;;;;0.98;0.93;;;;;;;;;;5139575;27;20500;-63
2022/01/23 00:11:11;;;;;;;1.10;1.00;;;;;;;;;;5140867;27;20492;-63
2022/01/23 00:17:16;;;;;;;0.90;0.90;;;;;;;;;;5139774;27;20489;-63
2022/01/23 00:19:13;;;;;;;0.98;0.98;;;;;;;;;;5139305;27;20193;-63
2022/01/23 00:21:41;;;;;;;0.88;0.88;;;;;;;;;;5140131;27;20223;-64
2022/01/23 00:32:27;;;;;;;0.70;0.70;;;;;;;;;;5126914;27;20596;-63
2022/01/23 00:34:54;;;;;;;1.10;1.00;;;;;;;;;;5138715;27;20209;-63
2022/01/23 00:37:23;;;;;;;1.30;1.00;;;;;;;;;;5139990;27;20194;-63
2022/01/23 00:39:52;;;;;;;0.90;0.90;;;;;;;;;;5139716;27;20198;-63
2022/01/23 00:42:20;;;;;;;0.93;0.93;;;;;;;;;;5138777;27;20219;-63
2022/01/23 00:44:53;;;;;;;0.80;0.80;;;;;;;;;;5139399;27;20202;-63
2022/01/23 00:47:20;;;;;;;0.70;0.70;;;;;;;;;;5139008;27;20571;-63
2022/01/23 00:49:47;;;;;;;0.70;0.70;;;;;;;;;;5138983;27;20209;-63
2022/01/23 00:52:17;;;;;;;0.80;0.80;;;;;;;;;;5138230;27;20199;-63
2022/01/23 00:54:44;;;;;;;0.60;0.60;;;;;;;;;;5139626;27;20213;-63
2022/01/23 00:57:13;;;;;;;0.65;0.65;;;;;;;;;;5138020;27;20616;-63
2022/01/23 00:59:40;;;;;;;0.68;0.68;;;;;;;;;;5139186;27;20210;-63
2022/01/23 01:02:08;;;;;;;0.70;0.70;;;;;;;;;;5136892;27;20227;-63
2022/01/23 01:04:36;;;;;;;0.75;0.70;;;;;;;;;;5139448;27;20202;-63
2022/01/23 01:07:03;;;;;;;0.80;0.80;;;;;;;;;;5138594;27;20205;-63
2022/01/23 01:09:31;;;;;;;0.70;0.70;;;;;;;;;;5138544;27;20198;-63
2022/01/23 01:12:03;;;;;;;0.82;0.82;;;;;;;;;;5138878;27;20194;-64
2022/01/23 01:14:57;;;;;;;0.70;0.70;;;;;;;;;;5137587;27;20318;-63
2022/01/23 01:17:35;;;;;;;0.65;0.65;;;;;;;;;;5137749;27;20203;-64
2022/01/23 01:31:24;;;;;;;0.70;0.70;;;;;;;;;;5138664;27;20197;-63
2022/01/23 01:33:56;;;;;;;0.60;0.60;;;;;;;;;;5132079;27;20190;-63
2022/01/23 01:36:29;;;;;;;0.80;0.80;;;;;;;;;;5139406;27;20453;-63
2022/01/23 01:38:57;;;;;;;0.60;0.60;;;;;;;;;;5138217;27;20199;-63
2022/01/23 01:41:24;;;;;;;0.60;0.60;;;;;;;;;;5138568;27;20202;-63
2022/01/23 01:43:53;;;;;;;0.60;0.60;;;;;;;;;;5137911;27;20230;-63
2022/01/23 01:46:22;;;;;;;0.60;0.60;;;;;;;;;;5138017;27;20199;-63
2022/01/23 01:48:49;;;;;;;0.65;0.52;;;;;;;;;;5137310;27;20577;-63
2022/01/23 01:51:18;;;;;;;0.47;0.47;;;;;;;;;;5138381;27;20198;-62
2022/01/23 01:53:50;;;;;;;0.60;0.60;;;;;;;;;;5137633;27;20259;-63
2022/01/23 01:56:18;;;;;;;0.63;0.63;;;;;;;;;;5138552;27;20249;-63
2022/01/23 01:59:10;;;;;;;0.60;0.60;;;;;;;;;;5121107;28;20198;-63
2022/01/23 02:09:55;;;;;;;0.60;0.60;;;;;;;;;;5117414;28;20198;-63
2022/01/23 02:12:57;;;;;;;0.50;0.50;;;;;;;;;;5117262;28;20194;-61
2022/01/23 02:18:27;;;;;;;0.47;0.47;;;;;;;;;;5061483;28;20308;-63
2022/01/23 02:51:33;;;;;;;0.55;0.55;;;;;;;;;;5105399;28;20244;-63
2022/01/23 02:56:49;;;;;;;0.50;0.50;;;;;;;;;;5120552;27;20245;-63
2022/01/23 02:59:23;;;;;;;0.50;0.50;;;;;;;;;;5121664;28;20203;-63
2022/01/23 03:02:03;;;;;;;0.82;0.63;;;;;;;;;;5120739;28;20220;-63
2022/01/23 03:04:32;;;;;;;0.50;0.47;;;;;;;;;;5120842;28;20199;-63
2022/01/23 03:07:13;;;;;;;0.65;0.40;;;;;;;;;;5121096;28;20203;-64
2022/01/23 03:09:59;;;;;;;0.50;0.50;;;;;;;;;;5120752;28;20232;-63
2022/01/23 03:15:22;;;;;;;0.60;0.60;;;;;;;;;;5100029;28;20198;-61
2022/01/23 03:26:17;;;;;;;0.40;0.40;;;;;;;;;;5119762;28;20202;-63
2022/01/23 03:31:28;;;;;;;0.57;0.43;;;;;;;;;;5116627;28;20218;-63
2022/01/23 03:33:56;;;;;;;0.30;0.30;;;;;;;;;;5119549;28;20199;-64
2022/01/23 03:36:24;;;;;;;0.50;0.50;;;;;;;;;;5120183;28;20203;-63
2022/01/23 03:38:51;;;;;;;0.50;0.50;;;;;;;;;;5120005;28;20198;-64
2022/01/23 03:41:20;;;;;;;0.50;0.50;;;;;;;;;;5120317;28;20616;-63
2022/01/23 03:43:47;;;;;;;0.80;0.60;;;;;;;;;;5119874;28;20617;-63
2022/01/23 03:46:33;;;;;;;1.10;0.43;;;;;;;;;;5119634;28;20199;-63
2022/01/23 03:51:45;;;;;;;0.40;0.40;;;;;;;;;;5120177;28;20205;-64
2022/01/23 03:54:13;;;;;;;0.50;0.50;;;;;;;;;;5119764;28;20617;-63
2022/01/23 03:56:41;;;;;;;0.60;0.50;;;;;;;;;;5127176;27;20237;-63
2022/01/23 03:59:09;;;;;;;0.57;0.50;;;;;;;;;;5120350;27;20199;-64
2022/01/23 04:01:37;;;;;;;0.40;0.40;;;;;;;;;;5120030;28;20478;-63
2022/01/23 04:04:12;;;;;;;0.63;0.60;;;;;;;;;;5124389;27;20234;-63
2022/01/23 04:06:40;;;;;;;0.73;0.40;;;;;;;;;;5120113;28;20203;-63
2022/01/23 04:09:07;;;;;;;0.50;0.50;;;;;;;;;;5119444;27;20596;-63
2022/01/23 04:11:34;;;;;;;0.40;0.40;;;;;;;;;;5122987;27;20205;-64
2022/01/23 04:14:07;;;;;;;0.57;0.52;;;;;;;;;;5128204;27;20195;-63
2022/01/23 04:19:39;;;;;;;0.40;0.40;;;;;;;;;;5069292;28;20209;-63
2022/01/23 05:00:59;;;;;;;0.32;0.30;;;;;;;;;;5118930;28;20194;-63
2022/01/23 05:04:07;;;;;;;0.40;0.40;;;;;;;;;;5118090;28;20214;-63
2022/01/23 05:06:42;;;;;;;0.20;0.20;;;;;;;;;;5118443;28;20210;-63
2022/01/23 05:09:09;;;;;;;0.40;0.40;;;;;;;;;;5118368;28;20202;-64
2022/01/23 05:11:39;;;;;;;0.40;0.40;;;;;;;;;;5118339;28;20507;-63
2022/01/23 05:14:06;;;;;;;0.40;0.40;;;;;;;;;;5118334;28;20228;-63
2022/01/23 05:16:34;;;;;;;0.50;0.38;;;;;;;;;;5118559;28;20202;-64
2022/01/23 05:19:03;;;;;;;0.40;0.40;;;;;;;;;;5118063;28;20199;-63
2022/01/23 05:21:52;;;;;;;0.40;0.40;;;;;;;;;;5117919;28;20208;-63
2022/01/23 05:24:23;;;;;;;0.43;0.43;;;;;;;;;;5118087;28;20246;-63
2022/01/23 05:26:51;;;;;;;0.40;0.40;;;;;;;;;;5117803;28;20203;-63
2022/01/23 05:29:21;;;;;;;0.50;0.50;;;;;;;;;;5101675;28;20214;-63
2022/01/23 05:31:50;;;;;;;0.30;0.30;;;;;;;;;;5117624;28;20659;-63
2022/01/23 05:34:20;;;;;;;0.40;0.40;;;;;;;;;;5117644;28;20187;-63
2022/01/23 05:36:48;;;;;;;0.40;0.40;;;;;;;;;;5118215;28;20206;-63
2022/01/23 05:39:18;;;;;;;0.30;0.30;;;;;;;;;;5117143;28;20206;-64
2022/01/23 05:41:45;;;;;;;0.30;0.30;;;;;;;;;;5118145;28;20210;-63
2022/01/23 05:44:13;;;;;;;0.32;0.32;;;;;;;;;;5117143;28;20227;-63
2022/01/23 05:46:40;;;;;;;0.93;0.40;;;;;;;;;;5117512;28;20205;-64
2022/01/23 05:49:07;;;;;;;0.30;0.30;;;;;;;;;;5116923;28;20203;-61
2022/01/23 05:51:36;;;;;;;0.40;0.40;;;;;;;;;;5117534;28;20214;-61
2022/01/23 05:54:04;;;;;;;0.30;0.30;;;;;;;;;;5116521;28;20195;-64
2022/01/23 05:56:31;;;;;;;0.35;0.35;;;;;;;;;;5124564;27;20264;-63
2022/01/23 05:59:00;;;;;;;0.38;0.38;;;;;;;;;;5138050;27;20233;-63
2022/01/23 06:01:27;;;;;;;0.30;0.28;;;;;;;;;;5137886;27;20209;-63
2022/01/23 06:03:55;;;;;;;0.85;0.30;;;;;;;;;;5138007;28;20249;-63
2022/01/23 06:06:22;;;;;;;0.82;0.40;;;;;;;;;;5138138;28;20206;-63
2022/01/23 06:08:51;;;;;;;0.30;0.30;;;;;;;;;;5138030;28;20484;-63
2022/01/23 06:11:18;;;;;;;0.65;0.40;;;;;;;;;;5138812;28;20472;-63
2022/01/23 06:13:46;;;;;;;0.57;0.30;;;;;;;;;;5137929;28;20205;-63
2022/01/23 06:16:13;;;;;;;0.38;0.38;;;;;;;;;;5138080;28;20206;-63
2022/01/23 06:18:41;;;;;;;0.30;0.30;;;;;;;;;;5137572;28;20585;-63
2022/01/23 06:21:08;;;;;;;0.40;0.38;;;;;;;;;;5138062;28;20213;-63
2022/01/23 06:23:35;;;;;;;0.50;0.40;;;;;;;;;;5137740;28;20218;-63
2022/01/23 06:26:04;;;;;;;0.40;0.40;;;;;;;;;;5137831;28;20206;-63
2022/01/23 06:28:38;;;;;;;0.60;0.40;;;;;;;;;;5138154;28;20194;-63
2022/01/23 06:31:05;;;;;;;0.20;0.20;;;;;;;;;;5138184;28;20209;-63
2022/01/23 06:33:32;;;;;;;0.40;0.40;;;;;;;;;;5137142;28;20293;-63
2022/01/23 06:36:00;;;;;;;0.30;0.30;;;;;;;;;;5137602;28;20206;-63
2022/01/23 06:38:27;;;;;;;0.40;0.40;;;;;;;;;;5138044;28;20198;-63
2022/01/23 06:40:54;;;;;;;0.40;0.40;;;;;;;;;;5137863;28;20613;-63
2022/01/23 06:43:23;;;;;;;0.60;0.40;;;;;;;;;;5137814;28;20233;-63
2022/01/23 06:45:51;;;;;;;0.55;0.40;;;;;;;;;;5138374;28;20202;-63
2022/01/23 06:48:18;;;;;;;0.35;0.35;;;;;;;;;;5137951;28;20480;-63
2022/01/23 06:50:45;;;;;;;0.50;0.50;;;;;;;;;;5138038;28;20234;-63
2022/01/23 06:53:13;;;;;;;0.40;0.40;;;;;;;;;;5137505;28;20605;-63
2022/01/23 06:55:40;;;;;;;0.40;0.40;;;;;;;;;;5138001;28;20214;-63
2022/01/23 06:58:08;;;;;;;2.05;0.60;;;;;;;;;;5117040;28;20199;-63
2022/01/23 07:00:36;;;;;;;0.40;0.40;;;;;;;;;;5118675;28;20208;-63
2022/01/23 07:03:04;;;;;;;0.30;0.30;;;;;;;;;;5120483;28;20199;-63
2022/01/23 07:05:31;;;;;;;0.30;0.30;;;;;;;;;;5121332;28;20202;-63
2022/01/23 07:07:58;;;;;;;0.50;0.40;;;;;;;;;;5120680;28;20203;-63
2022/01/23 07:10:26;;;;;;;0.40;0.40;;;;;;;;;;5120834;28;20225;-63
2022/01/23 07:12:53;;;;;;;0.30;0.30;;;;;;;;;;5120285;28;20206;-64
2022/01/23 07:15:21;;;;;;;0.50;0.38;;;;;;;;;;5120442;28;20585;-64
2022/01/23 07:17:50;;;;;;;0.22;0.22;;;;;;;;;;5120530;28;20206;-61
2022/01/23 07:20:17;;;;;;;0.25;0.22;;;;;;;;;;5120797;28;20199;-63
2022/01/23 07:22:44;;;;;;;0.38;0.30;;;;;;;;;;5120099;28;20207;-61
2022/01/23 07:25:11;;;;;;;0.40;0.30;;;;;;;;;;5120681;28;20322;-63
2022/01/23 07:27:45;;;;;;;0.30;0.30;;;;;;;;;;5120236;28;20192;-63
2022/01/23 07:30:24;;;;;;;0.32;0.32;;;;;;;;;;5120301;28;20286;-63
2022/01/23 07:32:53;;;;;;;0.40;0.40;;;;;;;;;;5119822;28;20206;-63
2022/01/23 07:35:21;;;;;;;0.40;0.40;;;;;;;;;;5120119;28;20202;-63
2022/01/23 07:40:58;;;;;;;0.32;0.32;;;;;;;;;;5851217;22;20323;-61
2022/01/23 07:43:25;;;;;;;0.30;0.30;;;;;;;;;;5114818;28;20219;-62
2022/01/23 07:45:52;;;;;;;0.30;0.30;;;;;;;;;;5119418;28;20207;-62
2022/01/23 07:48:21;;;;;;;0.30;0.30;;;;;;;;;;5117463;28;20195;-63
2022/01/23 07:50:49;;;;;;;0.30;0.30;;;;;;;;;;5118773;28;20205;-61
2022/01/23 07:53:16;;;;;;;0.30;0.30;;;;;;;;;;5104975;28;20199;-61
2022/01/23 07:55:44;;;;;;;0.38;0.30;;;;;;;;;;5098896;28;20200;-61
2022/01/23 07:58:14;;;;;;;0.40;0.40;;;;;;;;;;5098841;28;20199;-61
2022/01/23 08:00:42;;;;;;;0.30;0.30;;;;;;;;;;5118593;28;20674;-61
2022/01/23 08:03:10;;;;;;;0.30;0.30;;;;;;;;;;5105294;28;20613;-61
2022/01/23 08:05:39;;;;;;;0.28;0.20;;;;;;;;;;5116529;28;20289;-61
2022/01/23 08:08:07;;;;;;;0.30;0.30;;;;;;;;;;5108675;28;20546;-61
2022/01/23 08:10:34;;;;;;;0.30;0.30;;;;;;;;;;5098559;28;20254;-61
2022/01/23 08:13:03;;;;;;;0.40;0.40;;;;;;;;;;5110331;28;20199;-61
2022/01/23 08:15:30;;;;;;;0.30;0.30;;;;;;;;;;5103436;28;20206;-61
2022/01/23 08:18:00;;;;;;;0.40;0.40;;;;;;;;;;5101798;28;20196;-62
2022/01/23 08:20:27;;;;;;;0.45;0.20;;;;;;;;;;5104044;28;20598;-61
2022/01/23 08:22:58;;;;;;;0.35;0.32;;;;;;;;;;5109958;28;20199;-61
2022/01/23 08:25:25;;;;;;;0.30;0.30;;;;;;;;;;5103618;28;20632;-61
2022/01/23 08:27:53;;;;;;;0.30;0.30;;;;;;;;;;5097865;28;20206;-61
2022/01/23 08:30:20;;;;;;;0.30;0.30;;;;;;;;;;5096266;28;20200;-61
2022/01/23 08:32:48;;;;;;;0.43;0.43;;;;;;;;;;5103413;28;20203;-62
2022/01/23 08:35:15;;;;;;;0.40;0.40;;;;;;;;;;5113909;28;20188;-62
2022/01/23 08:37:43;;;;;;;0.40;0.40;;;;;;;;;;5097602;28;20195;-61
2022/01/23 08:40:20;;;;;;;0.75;0.30;;;;;;;;;;5097453;28;20200;-61
2022/01/23 08:42:47;;;;;;;0.40;0.40;;;;;;;;;;5106530;28;20618;-62
2022/01/23 08:45:14;;;;;;;0.40;0.40;;;;;;;;;;5117795;28;20602;-61
2022/01/23 08:47:42;;;;;;;0.35;0.35;;;;;;;;;;5110035;28;20290;-61
2022/01/23 08:50:10;;;;;;;0.55;0.30;;;;;;;;;;5096951;28;20230;-62
2022/01/23 08:52:37;;;;;;;0.88;0.30;;;;;;;;;;5104067;28;20206;-61
2022/01/23 08:55:05;;;;;;;0.40;0.40;;;;;;;;;;5117626;28;20586;-61
2022/01/23 08:57:33;;;;;;;0.40;0.40;;;;;;;;;;5116845;28;20194;-62
2022/01/23 09:00:01;;;;;;;0.20;0.20;;;;;;;;;;5116462;28;20202;-62
2022/01/23 09:02:29;;;;;;;0.43;0.30;;;;;;;;;;5111626;28;20243;-61
2022/01/23 09:04:59;;;;;;;0.45;0.40;;;;;;;;;;5097003;28;20297;-61
2022/01/23 09:07:26;;;;;;;1.30;0.47;;;;;;;;;;5104814;28;20471;-62
2022/01/23 09:10:00;;;;;;;0.40;0.40;;;;;;;;;;5096911;28;20322;-61
2022/01/23 09:12:42;;;;;;;0.82;0.40;;;;;;;;;;5102435;28;20229;-61
2022/01/23 09:15:11;;;;;;;0.30;0.30;;;;;;;;;;5116759;28;20256;-61
2022/01/23 09:17:39;;;;;;;0.30;0.30;;;;;;;;;;5115024;28;20195;-61
2022/01/23 09:20:07;;;;;;;0.40;0.40;;;;;;;;;;5116502;28;20205;-61
2022/01/23 09:22:34;;;;;;;0.68;0.40;;;;;;;;;;5109303;28;20460;-61
2022/01/23 09:25:02;;;;;;;0.73;0.55;;;;;;;;;;5096250;28;20234;-61
2022/01/23 09:27:29;;;;;;;0.40;0.40;;;;;;;;;;5102029;28;20605;-61
2022/01/23 09:30:05;;;;;;;0.40;0.40;;;;;;;;;;5116935;28;20195;-61
2022/01/23 09:32:34;;;;;;;0.40;0.40;;;;;;;;;;5114125;28;20187;-62
2022/01/23 09:35:02;;;;;;;0.45;0.45;;;;;;;;;;5096185;28;20239;-61
2022/01/23 09:37:31;;;;;;;0.40;0.40;;;;;;;;;;5105345;28;20498;-61
2022/01/23 09:40:00;;;;;;;0.82;0.57;;;;;;;;;;5117023;28;20301;-61
2022/01/23 09:42:28;;;;;;;0.40;0.40;;;;;;;;;;5109912;28;20293;-62
2022/01/23 09:44:58;;;;;;;0.40;0.40;;;;;;;;;;5096001;28;20607;-61
2022/01/23 09:47:26;;;;;;;0.88;0.50;;;;;;;;;;5095929;28;20203;-61
2022/01/23 09:49:55;;;;;;;0.50;0.50;;;;;;;;;;5094609;28;20208;-61
2022/01/23 09:52:23;;;;;;;0.60;0.50;;;;;;;;;;5098787;28;20201;-61
2022/01/23 09:54:57;;;;;;;0.50;0.50;;;;;;;;;;5115275;28;20202;-61
2022/01/23 09:57:28;;;;;;;0.88;0.70;;;;;;;;;;5116272;28;20679;-62
2022/01/23 09:59:55;;;;;;;0.60;0.60;;;;;;;;;;5114789;28;20701;-61
2022/01/23 10:02:23;;;;;;;1.08;0.60;;;;;;;;;;5110949;28;20206;-61
2022/01/23 10:04:51;;;;;;;1.30;0.85;;;;;;;;;;5094870;28;20555;-61
2022/01/23 10:07:20;;;;;;;1.42;0.40;;;;;;;;;;5099254;28;20199;-61
2022/01/23 10:09:53;;;;;;;0.47;0.47;;;;;;;;;;5114786;28;20234;-61
2022/01/23 10:12:26;;;;;;;0.77;0.60;;;;;;;;;;5111272;28;20236;-62
2022/01/23 10:14:54;;;;;;;0.50;0.50;;;;;;;;;;5095099;28;20231;-62
2022/01/23 10:17:21;;;;;;;0.95;0.50;;;;;;;;;;5078679;28;20339;-61
2022/01/23 10:19:49;;;;;;;1.40;0.50;;;;;;;;;;5094552;28;20204;-61
2022/01/23 10:22:17;;;;;;;1.35;0.70;;;;;;;;;;5096566;28;20200;-61
2022/01/23 10:24:46;;;;;;;0.55;0.50;;;;;;;;;;5114380;28;20559;-61
2022/01/23 10:27:13;;;;;;;1.17;0.60;;;;;;;;;;5114743;28;20202;-61
2022/01/23 10:29:45;;;;;;;1.15;0.77;;;;;;;;;;5114420;28;20208;-61
2022/01/23 10:32:18;;;;;;;3.03;2.72;;;;;;;;;;5111887;28;20199;-61
2022/01/23 10:34:48;;;;;;;4.40;3.45;;;;;;;;;;5098010;28;20655;-61
2022/01/23 10:37:24;;;;;;;3.25;2.83;;;;;;;;;;5080328;28;20558;-61
2022/01/23 10:39:53;;;;;;;3.90;3.55;;;;;;;;;;5106546;28;20195;-61
2022/01/23 10:42:36;;;;;;;3.67;3.17;;;;;;;;;;5117752;28;20684;-61
2022/01/23 10:47:54;;;;;;;10.10;7.35;;;;;;;;;;5117663;28;20482;-62
2022/01/23 10:50:23;;;;;;;7.43;5.63;;;;;;;;;;5119914;28;20210;-61
2022/01/23 10:52:51;;;;;;;6.40;5.47;;;;;;;;;;5111254;28;20210;-61
2022/01/23 10:55:26;;;;;;;6.72;5.50;;;;;;;;;;5098889;28;20195;-61
2022/01/23 10:58:00;;;;;;;9.52;5.25;;;;;;;;;;5107138;28;20493;-61
2022/01/23 11:00:30;;;;;;;6.57;5.70;;;;;;;;;;5119480;28;20218;-61
2022/01/23 11:02:58;;;;;;;6.68;4.93;;;;;;;;;;5110877;28;20195;-61
2022/01/23 11:05:32;;;;;;;5.28;4.75;;;;;;;;;;5109206;28;20230;-61
2022/01/23 11:08:00;;;;;;;6.10;4.30;;;;;;;;;;5104046;28;20254;-62
2022/01/23 11:10:30;;;;;;;7.95;4.70;;;;;;;;;;5099172;28;20200;-61
2022/01/23 11:18:42;;;;;;;5.60;4.35;;;;;;;;;;5057567;28;20203;-61
2022/01/23 11:21:20;;;;;;;5.28;3.83;;;;;;;;;;5119827;28;20575;-61
2022/01/23 11:23:56;;;;;;;7.97;3.97;;;;;;;;;;5104299;28;20203;-61
2022/01/23 11:26:26;;;;;;;4.13;3.70;;;;;;;;;;5099106;28;20491;-61
2022/01/23 11:28:55;;;;;;;4.60;3.60;;;;;;;;;;5099220;28;20191;-62
2022/01/23 11:31:23;;;;;;;5.28;3.85;;;;;;;;;;5098847;28;20206;-61
2022/01/23 11:33:51;;;;;;;4.53;3.80;;;;;;;;;;5109722;28;20298;-62
2022/01/23 11:36:20;;;;;;;3.47;3.13;;;;;;;;;;5107302;28;20620;-61
2022/01/23 11:38:50;;;;;;;3.78;3.17;;;;;;;;;;5099909;28;20199;-61
2022/01/23 11:55:29;;;;;;;4.90;2.70;;;;;;;;;;5111482;28;20203;-62
2022/01/23 11:57:57;;;;;;;3.65;2.78;;;;;;;;;;5116699;28;20206;-62
2022/01/23 12:00:30;;;;;;;11.13;9.35;;;;;;;;;;5114354;28;20188;-61
2022/01/23 12:03:21;;;;;;;11.75;10.23;;;;;;;;;;5098611;28;20546;-61
2022/01/23 12:05:49;;;;;;;12.00;10.63;;;;;;;;;;5083581;28;20237;-61
2022/01/23 12:08:18;;;;;;;10.18;9.18;;;;;;;;;;5099087;28;20195;-61
2022/01/23 12:11:16;;;;;;;10.60;9.00;;;;;;;;;;5103334;28;20194;-61
2022/01/23 12:13:57;;;;;;;9.23;8.18;;;;;;;;;;5105490;28;20307;-61
2022/01/23 12:16:50;;;;;;;8.40;7.55;;;;;;;;;;5098692;28;20298;-62
2022/01/23 12:19:18;;;;;;;9.27;7.80;;;;;;;;;;5099879;28;20494;-61
2022/01/23 12:21:46;;;;;;;8.48;6.97;;;;;;;;;;5098529;28;20204;-61
2022/01/23 12:24:15;;;;;;;7.85;7.07;;;;;;;;;;5098487;28;20281;-61
2022/01/23 12:26:42;;;;;;;8.25;6.55;;;;;;;;;;5098922;28;20223;-61
2022/01/23 12:29:13;;;;;;;7.00;5.90;;;;;;;;;;5112931;28;20194;-61
2022/01/23 12:31:43;;;;;;;8.45;6.45;;;;;;;;;;5118913;28;20268;-61
2022/01/23 12:34:10;;;;;;;8.98;6.07;;;;;;;;;;5102428;28;20191;-62
2022/01/23 12:36:40;;;;;;;6.43;5.78;;;;;;;;;;5101440;28;20538;-61
2022/01/23 12:39:21;;;;;;;8.02;5.80;;;;;;;;;;5117546;28;20578;-61
2022/01/23 12:41:55;;;;;;;9.30;5.30;;;;;;;;;;5097259;28;20270;-61
2022/01/23 12:44:33;;;;;;;5.93;5.32;;;;;;;;;;5105688;28;20609;-62
2022/01/23 12:47:03;;;;;;;5.50;5.00;;;;;;;;;;5116989;28;20227;-61
2022/01/23 12:49:33;;;;;;;5.68;4.57;;;;;;;;;;5113754;28;20268;-61
2022/01/23 12:52:17;;;;;;;4.70;4.15;;;;;;;;;;5117441;28;20207;-62
2022/01/23 12:54:52;;;;;;;4.65;4.18;;;;;;;;;;5118445;28;20209;-61
2022/01/23 12:57:24;;;;;;;5.25;4.00;;;;;;;;;;5080544;28;20243;-61
2022/01/23 12:59:52;;;;;;;5.22;4.32;;;;;;;;;;5096684;28;20196;-61
2022/01/23 13:02:23;;;;;;;4.28;3.85;;;;;;;;;;5097152;28;20232;-61
2022/01/23 13:04:53;;;;;;;5.20;4.00;;;;;;;;;;5097586;28;20212;-61
2022/01/23 13:07:37;;;;;;;4.65;3.90;;;;;;;;;;5097580;28;20221;-61
2022/01/23 13:10:10;;;;;;;5.10;3.42;;;;;;;;;;5076947;28;20231;-61
2022/01/23 13:12:49;;;;;;;4.10;3.70;;;;;;;;;;5094622;28;20199;-61
2022/01/23 13:15:42;;;;;;;4.57;3.33;;;;;;;;;;5102787;28;20205;-61
2022/01/23 13:18:33;;;;;;;5.25;3.30;;;;;;;;;;5110780;28;20222;-61
2022/01/23 13:27:06;;;;;;;4.25;2.60;;;;;;;;;;5096988;28;20779;-61
2022/01/23 13:32:20;;;;;;;3.10;2.78;;;;;;;;;;5110515;28;20191;-61
2022/01/23 13:34:50;;;;;;;3.63;2.65;;;;;;;;;;5097627;28;20552;-62
2022/01/23 13:37:19;;;;;;;4.03;2.50;;;;;;;;;;5099999;28;20207;-62
2022/01/23 13:39:49;;;;;;;3.33;3.03;;;;;;;;;;5098054;28;20199;-62
2022/01/23 13:42:45;;;;;;;4.35;2.40;;;;;;;;;;5099630;28;20310;-61
2022/01/23 13:48:34;;;;;;;2.92;2.15;;;;;;;;;;5110656;28;20209;-62
2022/01/23 13:54:17;;;;;;;2.35;2.15;;;;;;;;;;5096677;28;20628;-62
2022/01/23 13:59:35;;;;;;;2.53;1.85;;;;;;;;;;5111521;28;20193;-62
2022/01/23 14:02:15;;;;;;;2.50;2.10;;;;;;;;;;5116346;28;20648;-61
2022/01/23 14:04:46;;;;;;;3.20;2.05;;;;;;;;;;5111766;28;20598;-61
2022/01/23 14:07:17;;;;;;;3.92;1.83;;;;;;;;;;5099222;28;20225;-62
2022/01/23 14:09:45;;;;;;;3.08;1.77;;;;;;;;;;5098397;28;20209;-61
2022/01/23 14:12:14;;;;;;;2.20;1.83;;;;;;;;;;5099954;28;20195;-62
2022/01/23 14:14:54;;;;;;;4.15;1.80;;;;;;;;;;5116546;28;20213;-61
2022/01/23 14:17:21;;;;;;;1.73;1.60;;;;;;;;;;5085658;28;20794;-61
2022/01/23 14:19:59;;;;;;;2.83;2.60;;;;;;;;;;5098114;28;20206;-62
2022/01/23 14:22:32;;;;;;;2.75;2.25;;;;;;;;;;5095844;28;20205;-62
2022/01/23 14:25:09;;;;;;;2.50;2.00;;;;;;;;;;5096028;28;20207;-62
2022/01/23 14:27:37;;;;;;;3.17;1.88;;;;;;;;;;5095666;28;20196;-62
2022/01/23 14:30:08;;;;;;;2.33;2.13;;;;;;;;;;5114472;28;20236;-62
2022/01/23 14:32:41;;;;;;;2.20;1.92;;;;;;;;;;5115521;28;20293;-62
2022/01/23 14:35:11;;;;;;;3.05;1.88;;;;;;;;;;5100623;28;20286;-61
2022/01/23 14:37:40;;;;;;;2.72;1.98;;;;;;;;;;5096227;28;20283;-62
2022/01/23 14:40:11;;;;;;;1.85;1.55;;;;;;;;;;5115978;28;20206;-62
2022/01/23 14:42:39;;;;;;;2.28;1.88;;;;;;;;;;5116138;28;20231;-62
2022/01/23 14:45:07;;;;;;;2.38;1.70;;;;;;;;;;5116560;28;20242;-62
2022/01/23 14:47:36;;;;;;;2.28;1.70;;;;;;;;;;5114025;28;20229;-61
2022/01/23 14:50:06;;;;;;;1.70;1.60;;;;;;;;;;5097552;28;20203;-62
2022/01/23 14:52:33;;;;;;;3.45;1.63;;;;;;;;;;5100858;28;20200;-62
2022/01/23 14:55:02;;;;;;;6.80;1.90;;;;;;;;;;5094572;28;20200;-61
2022/01/23 14:57:32;;;;;;;2.97;1.63;;;;;;;;;;5094818;28;20595;-61
2022/01/23 15:00:00;;;;;;;1.63;1.48;;;;;;;;;;5111727;28;20265;-62
2022/01/23 15:02:27;;;;;;;2.40;1.52;;;;;;;;;;5114227;28;20195;-62
2022/01/23 15:04:58;;;;;;;2.42;1.67;;;;;;;;;;5114615;28;20207;-64
2022/01/23 15:07:25;;;;;;;2.38;1.70;;;;;;;;;;5114709;28;20621;-64
2022/01/23 15:09:53;;;;;;;2.05;1.50;;;;;;;;;;5097225;28;20686;-62
2022/01/23 15:12:21;;;;;;;3.17;1.60;;;;;;;;;;5094656;28;20214;-62
2022/01/23 15:14:49;;;;;;;3.05;1.48;;;;;;;;;;5095038;28;20583;-62
2022/01/23 15:17:18;;;;;;;1.52;1.40;;;;;;;;;;5095164;28;20506;-63
2022/01/23 15:19:45;;;;;;;3.05;1.40;;;;;;;;;;5113901;28;20203;-63
2022/01/23 15:22:12;;;;;;;1.88;1.30;;;;;;;;;;5101197;28;20602;-63
2022/01/23 15:24:40;;;;;;;2.42;1.50;;;;;;;;;;5098431;28;20204;-64
2022/01/23 15:27:07;;;;;;;1.98;1.30;;;;;;;;;;5098393;28;20234;-62
2022/01/23 15:29:36;;;;;;;1.40;1.27;;;;;;;;;;5104959;28;20200;-62
2022/01/23 15:32:04;;;;;;;1.77;1.35;;;;;;;;;;5099754;28;20204;-63
2022/01/23 15:34:35;;;;;;;1.77;1.60;;;;;;;;;;5115182;28;20199;-63
2022/01/23 15:37:02;;;;;;;1.92;1.23;;;;;;;;;;5101620;28;20196;-62
2022/01/23 15:39:30;;;;;;;2.10;1.38;;;;;;;;;;5111243;28;20214;-63
2022/01/23 15:41:59;;;;;;;1.10;1.00;;;;;;;;;;5118187;28;20253;-62
2022/01/23 15:44:26;;;;;;;3.78;1.23;;;;;;;;;;5118424;28;20203;-62
2022/01/23 15:46:56;;;;;;;1.58;1.10;;;;;;;;;;5117499;28;20230;-61
2022/01/23 15:49:23;;;;;;;1.83;0.95;;;;;;;;;;5102705;28;20381;-62
2022/01/23 15:51:51;;;;;;;3.78;1.33;;;;;;;;;;5113109;28;20542;-62
2022/01/23 15:54:19;;;;;;;1.73;1.02;;;;;;;;;;5098119;28;20200;-62
2022/01/23 15:56:48;;;;;;;2.67;1.27;;;;;;;;;;5098257;28;20490;-62
2022/01/23 15:59:17;;;;;;;1.50;1.15;;;;;;;;;;5099009;28;20476;-62
2022/01/23 16:01:49;;;;;;;1.20;1.10;;;;;;;;;;5116770;28;20203;-61
2022/01/23 16:04:18;;;;;;;1.20;1.10;;;;;;;;;;5076313;28;20294;-61
2022/01/23 16:06:46;;;;;;;1.58;1.00;;;;;;;;;;5076335;28;20248;-61
2022/01/23 16:09:13;;;;;;;2.92;1.30;;;;;;;;;;5106943;28;20349;-61
2022/01/23 16:11:41;;;;;;;1.90;1.30;;;;;;;;;;5117064;28;20230;-64
2022/01/23 16:14:09;;;;;;;1.45;1.15;;;;;;;;;;5114163;28;20593;-64
2022/01/23 16:16:36;;;;;;;2.20;1.17;;;;;;;;;;5116889;28;20424;-64
2022/01/23 16:19:04;;;;;;;1.23;1.13;;;;;;;;;;5112572;28;20199;-64
2022/01/23 16:21:33;;;;;;;1.63;1.15;;;;;;;;;;5117159;28;20199;-64
2022/01/23 16:24:00;;;;;;;1.85;1.20;;;;;;;;;;5101890;28;20211;-64
2022/01/23 16:26:28;;;;;;;2.22;1.20;;;;;;;;;;5096684;28;20227;-63
2022/01/23 16:28:56;;;;;;;2.28;0.95;;;;;;;;;;5109560;28;20191;-63
2022/01/23 16:31:23;;;;;;;1.42;1.20;;;;;;;;;;5097195;28;20207;-64
2022/01/23 16:33:50;;;;;;;1.90;1.05;;;;;;;;;;5110005;28;20206;-63
2022/01/23 16:36:18;;;;;;;3.25;1.33;;;;;;;;;;5117445;28;20625;-63
2022/01/23 16:38:47;;;;;;;2.25;1.10;;;;;;;;;;5106023;28;20202;-63
2022/01/23 16:41:14;;;;;;;4.20;1.30;;;;;;;;;;5117364;28;20245;-64
2022/01/23 16:43:42;;;;;;;2.88;1.25;;;;;;;;;;5117415;28;20230;-64
2022/01/23 16:46:09;;;;;;;3.42;1.20;;;;;;;;;;5117062;28;20218;-64
2022/01/23 16:48:40;;;;;;;1.67;1.13;;;;;;;;;;5111395;28;20595;-63
2022/01/23 16:51:07;;;;;;;2.55;1.20;;;;;;;;;;5099891;28;20199;-64
2022/01/23 16:53:36;;;;;;;2.58;1.20;;;;;;;;;;5097116;28;20203;-63
2022/01/23 16:56:05;;;;;;;1.52;1.13;;;;;;;;;;5104812;28;20491;-64
2022/01/23 16:58:33;;;;;;;4.95;1.33;;;;;;;;;;5099953;28;20202;-63
2022/01/23 17:01:04;;;;;;;2.72;1.05;;;;;;;;;;5109884;28;20200;-63
2022/01/23 17:03:31;;;;;;;2.55;1.50;;;;;;;;;;5096637;28;20265;-63
2022/01/23 17:06:00;;;;;;;3.85;1.30;;;;;;;;;;5096966;28;20200;-63
2022/01/23 17:08:28;;;;;;;2.50;1.35;;;;;;;;;;5098957;28;21657;-63
2022/01/23 17:10:58;;;;;;;3.13;1.20;;;;;;;;;;5115838;28;20213;-64
2022/01/23 17:13:26;;;;;;;4.07;1.40;;;;;;;;;;5115920;28;20195;-63
2022/01/23 17:15:54;;;;;;;3.38;1.60;;;;;;;;;;5117098;28;20587;-64
2022/01/23 17:18:21;;;;;;;3.03;1.20;;;;;;;;;;5113490;28;20199;-63
2022/01/23 17:20:49;;;;;;;5.93;1.20;;;;;;;;;;5095814;28;20203;-64
2022/01/23 17:23:17;;;;;;;3.58;1.38;;;;;;;;;;5095845;28;20210;-63
2022/01/23 17:25:45;;;;;;;3.05;1.08;;;;;;;;;;5107277;28;20283;-63
2022/01/23 17:28:12;;;;;;;2.75;1.10;;;;;;;;;;5115029;28;20222;-64
2022/01/23 17:30:41;;;;;;;2.08;1.08;;;;;;;;;;5076556;28;20200;-63
2022/01/23 17:33:08;;;;;;;1.83;1.33;;;;;;;;;;5094778;28;20190;-64
2022/01/23 17:35:36;;;;;;;17.15;15.55;;;;;;;;;;5111941;28;20199;-64
2022/01/23 17:38:03;;;;;;;9.82;8.93;;;;;;;;;;5104244;28;20195;-64
2022/01/23 17:40:31;;;;;;;9.57;7.43;;;;;;;;;;5096832;28;20203;-63
2022/01/23 17:43:00;;;;;;;8.63;6.93;;;;;;;;;;5105852;28;20234;-64
2022/01/23 17:45:33;;;;;;;9.70;7.53;;;;;;;;;;5101070;28;20589;-66
2022/01/23 17:48:19;;;;;;;8.68;7.10;;;;;;;;;;5113709;28;20223;-64
2022/01/23 17:50:47;;;;;;;11.07;7.22;;;;;;;;;;5075328;28;20521;-64